Time;durP1;ratioP1;P1;durP2;ratioP2;P2;SDS_P1;SDS_P2;PMS_P1;PMS_P2;Temp;Humidity;BMP_temperature;BMP_pressure;BME280_temperature;BME280_humidity;BME280_pressure;Samples;Min_cycle;Max_cycle;Signal;HPM_P1;HPM_P2
2022/03/11 00:01:03;;;;;;;2.53;1.80;;;;;;;22.01;nan;99398.53;5050290;28;20056;-56
2022/03/11 00:03:29;;;;;;;2.95;1.98;;;;;;;21.98;nan;99400.06;5049451;28;20452;-56
2022/03/11 00:05:55;;;;;;;3.22;2.20;;;;;;;21.98;nan;99400.88;5052121;28;20052;-58
2022/03/11 00:08:20;;;;;;;2.55;1.88;;;;;;;21.98;nan;99400.88;5050222;28;20033;-58
2022/03/11 00:10:46;;;;;;;2.90;1.98;;;;;;;21.98;nan;99389.72;5050341;28;20098;-57
2022/03/11 00:13:11;;;;;;;3.17;2.03;;;;;;;22.02;nan;99397.34;5049953;28;20041;-56
2022/03/11 00:15:37;;;;;;;2.80;1.80;;;;;;;21.98;nan;99388.94;5049871;28;20433;-56
2022/03/11 00:18:03;;;;;;;3.17;2.08;;;;;;;21.98;nan;99389.72;5049830;28;20053;-56
2022/03/11 00:20:31;;;;;;;2.67;1.90;;;;;;;22.01;nan;99390.16;5049971;28;20037;-56
2022/03/11 00:22:57;;;;;;;3.38;2.08;;;;;;;22.00;nan;99380.97;5052087;28;20490;-56
2022/03/11 00:25:23;;;;;;;3.72;2.28;;;;;;;21.98;nan;99389.72;5049656;28;20075;-56
2022/03/11 00:27:49;;;;;;;3.15;2.03;;;;;;;21.97;nan;99388.13;5049782;28;20390;-56
2022/03/11 00:30:15;;;;;;;3.00;2.03;;;;;;;21.96;nan;99382.94;5049646;28;20053;-56
2022/03/11 00:32:41;;;;;;;3.42;2.30;;;;;;;21.96;nan;99380.97;5049467;28;20060;-56
2022/03/11 00:35:09;;;;;;;3.13;2.00;;;;;;;21.97;nan;99382.56;5049559;28;20052;-57
2022/03/11 00:37:38;;;;;;;3.00;2.13;;;;;;;21.98;nan;99373.03;5049525;28;20041;-56
2022/03/11 00:40:36;;;;;;;2.97;2.05;;;;;;;21.99;nan;99365.47;5049575;28;20505;-56
2022/03/11 00:43:01;;;;;;;3.45;2.40;;;;;;;21.98;nan;99359.09;5069417;28;20044;-56
2022/03/11 00:45:27;;;;;;;3.05;2.00;;;;;;;21.99;nan;99363.47;5069480;28;20053;-56
2022/03/11 00:47:52;;;;;;;3.55;2.25;;;;;;;21.98;nan;99366.66;5069367;28;20032;-56
2022/03/11 00:50:18;;;;;;;4.25;2.45;;;;;;;21.97;nan;99365.84;5069447;28;20052;-56
2022/03/11 00:52:43;;;;;;;3.75;2.30;;;;;;;21.96;nan;99364.25;5069277;28;20044;-56
2022/03/11 00:55:09;;;;;;;3.30;2.30;;;;;;;21.96;nan;99361.47;5069444;28;20043;-56
2022/03/11 00:57:35;;;;;;;3.00;2.20;;;;;;;21.97;nan;99370.63;5069268;28;20114;-56
2022/03/11 01:00:00;;;;;;;3.42;2.53;;;;;;;21.98;nan;99367.44;5051559;28;20087;-56
2022/03/11 01:02:26;;;;;;;3.60;2.42;;;;;;;21.96;nan;99364.25;5049250;28;20045;-56
2022/03/11 01:04:51;;;;;;;3.47;2.20;;;;;;;21.98;nan;99372.22;5050138;28;20455;-56
2022/03/11 01:07:19;;;;;;;3.28;2.42;;;;;;;21.97;nan;99354.72;5068991;28;20037;-56
2022/03/11 01:09:45;;;;;;;3.78;2.30;;;;;;;21.98;nan;99341.59;5069081;28;20501;-56
2022/03/11 01:12:10;;;;;;;3.17;2.35;;;;;;;21.95;nan;99350.72;5068991;28;20059;-56
2022/03/11 01:14:36;;;;;;;2.75;2.05;;;;;;;21.97;nan;99363.06;5069136;28;20119;-56
2022/03/11 01:17:01;;;;;;;3.25;2.45;;;;;;;21.98;nan;99334.03;5071054;28;20405;-56
2022/03/11 01:19:26;;;;;;;2.75;2.13;;;;;;;21.98;nan;99353.53;5072550;28;20117;-56
2022/03/11 01:21:52;;;;;;;3.13;2.10;;;;;;;21.97;nan;99343.56;5072693;28;20102;-56
2022/03/11 01:24:17;;;;;;;2.92;2.20;;;;;;;21.99;nan;99334.81;5072743;28;20045;-56
2022/03/11 01:26:43;;;;;;;3.10;2.33;;;;;;;21.99;nan;99338.41;5072625;28;20098;-57
2022/03/11 01:29:08;;;;;;;3.55;2.50;;;;;;;21.99;nan;99334.81;5072521;28;20036;-56
2022/03/11 01:31:34;;;;;;;3.40;2.40;;;;;;;22.01;nan;99340.03;5072202;28;20044;-56
2022/03/11 01:33:59;;;;;;;3.20;2.33;;;;;;;22.00;nan;99342.00;5072387;28;20140;-56
2022/03/11 01:36:25;;;;;;;3.30;2.28;;;;;;;22.00;nan;99342.00;5072169;28;20047;-56
2022/03/11 01:38:50;;;;;;;3.38;2.17;;;;;;;22.00;nan;99336.44;5108644;28;20461;-56
2022/03/11 01:41:16;;;;;;;3.17;2.30;;;;;;;21.94;nan;99327.66;5112866;28;20048;-56
2022/03/11 01:44:13;;;;;;;3.25;2.20;;;;;;;21.98;nan;99324.88;5103324;28;20055;-56
2022/03/11 01:49:07;;;;;;;3.47;2.50;;;;;;;22.00;nan;99316.94;5071614;28;20052;-56
2022/03/11 01:51:36;;;;;;;3.67;2.40;;;;;;;22.00;nan;99328.06;5071024;28;20052;-56
2022/03/11 01:54:02;;;;;;;2.78;2.10;;;;;;;21.99;nan;99320.91;5071842;28;20051;-56
2022/03/11 01:56:27;;;;;;;3.45;2.33;;;;;;;21.99;nan;99316.13;5071981;28;20041;-56
2022/03/11 01:58:54;;;;;;;3.50;2.40;;;;;;;22.00;nan;99322.50;5071835;28;20047;-56
2022/03/11 02:01:22;;;;;;;3.72;2.63;;;;;;;21.98;nan;99310.94;5071450;28;20055;-56
2022/03/11 02:03:49;;;;;;;3.63;2.40;;;;;;;22.01;nan;99314.97;5071671;28;20071;-56
2022/03/11 02:06:15;;;;;;;3.20;2.22;;;;;;;21.99;nan;99306.97;5071782;28;20045;-56
2022/03/11 02:08:41;;;;;;;3.10;2.40;;;;;;;21.99;nan;99315.34;5071777;28;20540;-56
2022/03/11 02:11:08;;;;;;;3.15;2.40;;;;;;;21.96;nan;99311.34;5071560;28;20143;-56
2022/03/11 02:13:54;;;;;;;3.42;2.25;;;;;;;21.98;nan;99322.09;5071637;28;20048;-56
2022/03/11 02:16:21;;;;;;;3.58;2.58;;;;;;;21.99;nan;99321.69;5071570;28;20052;-56
2022/03/11 02:18:47;;;;;;;3.17;2.42;;;;;;;21.98;nan;99319.31;5071692;28;20584;-56
2022/03/11 02:21:13;;;;;;;3.30;2.42;;;;;;;21.97;nan;99315.72;5071764;28;20131;-56
2022/03/11 02:23:42;;;;;;;4.10;2.65;;;;;;;21.98;nan;99320.09;5102193;28;20131;-56
2022/03/11 02:26:08;;;;;;;3.53;2.65;;;;;;;21.98;nan;99313.72;5077604;28;20040;-56
2022/03/11 02:28:33;;;;;;;3.58;2.33;;;;;;;21.98;nan;99314.53;5071190;28;20045;-56
2022/03/11 02:30:59;;;;;;;3.97;2.63;;;;;;;21.99;nan;99318.91;5071496;28;20515;-56
2022/03/11 02:33:24;;;;;;;3.85;2.78;;;;;;;21.98;nan;99319.31;5071255;28;20048;-56
2022/03/11 02:35:49;;;;;;;3.25;2.45;;;;;;;21.98;nan;99310.94;5071475;28;20432;-56
2022/03/11 02:38:15;;;;;;;3.30;2.40;;;;;;;21.98;nan;99305.38;5071636;28;20049;-56
2022/03/11 02:40:40;;;;;;;3.38;2.50;;;;;;;21.98;nan;99311.75;5071433;28;20041;-56
2022/03/11 02:43:05;;;;;;;3.60;2.70;;;;;;;21.98;nan;99320.09;5071410;28;20040;-56
2022/03/11 02:45:31;;;;;;;3.65;2.60;;;;;;;21.97;nan;99317.72;5071392;28;20187;-57
2022/03/11 02:47:56;;;;;;;3.85;2.60;;;;;;;21.96;nan;99310.53;5071461;28;20064;-56
2022/03/11 02:50:22;;;;;;;3.35;2.33;;;;;;;21.97;nan;99310.16;5071425;28;20342;-56
2022/03/11 02:52:47;;;;;;;3.80;2.70;;;;;;;21.93;nan;99311.28;5107540;28;20044;-56
2022/03/11 02:55:12;;;;;;;3.50;2.45;;;;;;;21.95;nan;99315.31;5082216;28;20059;-56
2022/03/11 02:57:38;;;;;;;4.13;2.90;;;;;;;21.96;nan;99325.28;5107616;28;20036;-56
2022/03/11 03:00:04;;;;;;;3.50;2.45;;;;;;;21.95;nan;99311.72;5071269;28;20040;-57
2022/03/11 03:02:29;;;;;;;3.58;2.70;;;;;;;21.96;nan;99310.53;5071093;28;20055;-56
2022/03/11 03:04:55;;;;;;;3.67;2.65;;;;;;;21.94;nan;99315.72;5071217;28;20048;-56
2022/03/11 03:07:20;;;;;;;3.85;2.72;;;;;;;21.94;nan;99330.44;5071121;28;20048;-55
2022/03/11 03:09:45;;;;;;;3.60;2.55;;;;;;;21.94;nan;99310.13;5070981;28;20114;-56
2022/03/11 03:12:11;;;;;;;3.30;2.70;;;;;;;21.93;nan;99314.91;5071044;28;20040;-56
2022/03/11 03:14:37;;;;;;;3.30;2.60;;;;;;;21.93;nan;99320.47;5107692;28;20073;-56
2022/03/11 03:17:04;;;;;;;5.40;3.13;;;;;;;21.92;nan;99316.06;5075795;28;20052;-56
2022/03/11 03:19:29;;;;;;;4.03;3.20;;;;;;;21.93;nan;99314.09;5070806;28;20048;-56
2022/03/11 03:21:55;;;;;;;3.63;2.70;;;;;;;21.92;nan;99298.56;5070745;28;20040;-56
2022/03/11 03:24:20;;;;;;;3.97;2.72;;;;;;;21.94;nan;99315.72;5070749;28;20036;-56
2022/03/11 03:26:46;;;;;;;3.53;2.45;;;;;;;21.92;nan;99296.56;5070624;28;20044;-56
2022/03/11 03:29:11;;;;;;;3.65;2.60;;;;;;;21.93;nan;99297.38;5070597;28;20052;-56
2022/03/11 03:31:36;;;;;;;3.88;2.80;;;;;;;21.94;nan;99304.56;5070604;28;20047;-56
2022/03/11 03:34:02;;;;;;;3.78;2.92;;;;;;;21.93;nan;99301.00;5070396;28;20057;-56
2022/03/11 03:36:27;;;;;;;4.80;3.42;;;;;;;21.93;nan;99298.19;5070381;28;20090;-56
2022/03/11 03:38:53;;;;;;;4.35;3.13;;;;;;;21.91;nan;99292.19;5069621;28;20056;-56
2022/03/11 03:41:18;;;;;;;4.40;3.10;;;;;;;21.90;nan;99298.94;5070380;28;20076;-56
2022/03/11 03:43:43;;;;;;;3.88;2.97;;;;;;;21.87;nan;99288.59;5070399;28;20048;-57
2022/03/11 03:46:09;;;;;;;3.47;2.63;;;;;;;21.89;nan;99296.56;5070416;28;20045;-56
2022/03/11 03:48:34;;;;;;;3.75;3.00;;;;;;;21.89;nan;99296.56;5070100;28;20052;-56
2022/03/11 03:51:00;;;;;;;3.75;2.90;;;;;;;21.89;nan;99297.34;5069900;28;20063;-56
2022/03/11 03:53:25;;;;;;;4.47;3.00;;;;;;;21.90;nan;99290.59;5096064;28;20043;-56
2022/03/11 03:55:51;;;;;;;4.13;2.95;;;;;;;21.89;nan;99297.34;5110841;28;20044;-56
2022/03/11 03:58:16;;;;;;;3.90;2.92;;;;;;;21.89;nan;99291.78;5072980;28;20041;-56
2022/03/11 04:00:42;;;;;;;3.78;2.78;;;;;;;21.89;nan;99302.94;5069017;28;20037;-56
2022/03/11 04:03:07;;;;;;;3.47;2.70;;;;;;;21.89;nan;99291.78;5070347;28;20067;-56
2022/03/11 04:05:32;;;;;;;4.85;3.08;;;;;;;21.88;nan;99308.88;5070242;28;20039;-56
2022/03/11 04:07:58;;;;;;;4.30;3.45;;;;;;;21.89;nan;99297.34;5070181;28;20411;-56
2022/03/11 04:10:23;;;;;;;4.68;3.13;;;;;;;21.90;nan;99287.00;5070007;28;20076;-56
2022/03/11 04:12:50;;;;;;;3.58;2.88;;;;;;;21.89;nan;99291.00;5070045;28;20115;-56
2022/03/11 04:15:15;;;;;;;3.88;2.83;;;;;;;21.89;nan;99299.34;5069988;28;20041;-56
2022/03/11 04:17:41;;;;;;;4.15;2.90;;;;;;;21.89;nan;99291.00;5069842;28;20059;-56
2022/03/11 04:20:07;;;;;;;4.53;3.30;;;;;;;21.89;nan;99291.78;5069902;28;20037;-60
2022/03/11 04:22:32;;;;;;;4.03;2.75;;;;;;;21.87;nan;99277.47;5069827;28;20055;-59
2022/03/11 04:24:58;;;;;;;4.22;3.17;;;;;;;21.89;nan;99269.50;5069639;28;20052;-59
2022/03/11 04:27:23;;;;;;;4.05;3.08;;;;;;;21.90;nan;99257.19;5068933;28;20044;-59
2022/03/11 04:29:49;;;;;;;4.10;2.70;;;;;;;21.90;nan;99264.75;5069619;28;20062;-59
2022/03/11 04:32:14;;;;;;;3.85;2.60;;;;;;;21.89;nan;99244.44;5069448;28;20404;-59
2022/03/11 04:34:40;;;;;;;3.85;3.08;;;;;;;21.90;nan;99237.69;5100101;28;20564;-60
2022/03/11 04:37:05;;;;;;;5.00;3.00;;;;;;;21.90;nan;99243.25;5081215;28;20037;-59
2022/03/11 04:39:31;;;;;;;4.13;3.10;;;;;;;21.89;nan;99252.81;5069499;28;20119;-59
2022/03/11 04:41:56;;;;;;;4.53;3.20;;;;;;;21.93;nan;99261.16;5069524;28;20049;-59
2022/03/11 04:44:22;;;;;;;3.65;2.70;;;;;;;21.91;nan;99266.34;5069531;28;20052;-59
2022/03/11 04:46:48;;;;;;;4.07;3.08;;;;;;;21.90;nan;99262.75;5069465;28;20072;-59
2022/03/11 04:49:13;;;;;;;4.30;3.17;;;;;;;21.89;nan;99269.50;5069447;28;20114;-60
2022/03/11 04:51:39;;;;;;;3.85;3.08;;;;;;;21.90;nan;99261.97;5069278;28;20071;-60
2022/03/11 04:54:06;;;;;;;3.78;2.83;;;;;;;21.91;nan;99264.34;5068642;28;20047;-59
2022/03/11 04:56:32;;;;;;;3.70;2.80;;;;;;;21.92;nan;99265.94;5069020;28;20098;-60
2022/03/11 04:58:58;;;;;;;4.22;3.25;;;;;;;21.91;nan;99258.78;5084868;28;20070;-59
2022/03/11 05:01:24;;;;;;;3.47;2.70;;;;;;;21.92;nan;99270.72;5068825;28;20516;-59
2022/03/11 05:03:49;;;;;;;4.25;2.80;;;;;;;21.92;nan;99263.16;5084737;28;20124;-59
2022/03/11 05:06:15;;;;;;;3.75;2.70;;;;;;;21.92;nan;99263.16;5069121;28;20398;-59
2022/03/11 05:08:41;;;;;;;3.72;2.83;;;;;;;21.93;nan;99261.16;5069108;28;20044;-59
2022/03/11 05:11:06;;;;;;;4.45;3.20;;;;;;;21.93;nan;99262.00;5069175;28;20048;-60
2022/03/11 05:13:32;;;;;;;4.15;3.03;;;;;;;21.92;nan;99259.56;5069030;28;20041;-59
2022/03/11 05:15:58;;;;;;;4.28;3.08;;;;;;;21.91;nan;99244.84;5068972;28;20132;-60
2022/03/11 05:18:26;;;;;;;3.47;2.72;;;;;;;21.92;nan;99246.44;5069105;28;20043;-62
2022/03/11 05:20:51;;;;;;;3.90;2.90;;;;;;;21.90;nan;99243.25;5069343;28;20041;-61
2022/03/11 05:23:17;;;;;;;3.97;2.78;;;;;;;21.92;nan;99232.53;5069223;28;20048;-60
2022/03/11 05:25:42;;;;;;;3.45;2.78;;;;;;;21.93;nan;99230.53;5069211;28;20041;-60
2022/03/11 05:28:08;;;;;;;3.72;2.90;;;;;;;21.92;nan;99228.94;5072642;28;20045;-59
2022/03/11 05:30:36;;;;;;;3.25;2.55;;;;;;;21.92;nan;99224.16;5068997;28;20056;-59
2022/03/11 05:33:01;;;;;;;3.97;3.08;;;;;;;21.94;nan;99234.94;5069023;28;20098;-59
2022/03/11 05:35:27;;;;;;;3.97;2.80;;;;;;;21.94;nan;99243.31;5068854;28;20045;-59
2022/03/11 05:37:52;;;;;;;3.45;2.55;;;;;;;21.93;nan;99233.31;5068924;28;20041;-59
2022/03/11 05:40:18;;;;;;;4.38;3.15;;;;;;;21.92;nan;99240.88;5103657;28;20048;-59
2022/03/11 05:42:43;;;;;;;3.45;2.65;;;;;;;21.93;nan;99238.88;5109363;28;20399;-59
2022/03/11 05:45:09;;;;;;;3.92;2.72;;;;;;;21.92;nan;99223.38;5108955;28;20420;-59
2022/03/11 05:47:35;;;;;;;5.00;3.17;;;;;;;21.90;nan;99226.56;5073741;28;20044;-59
2022/03/11 05:50:00;;;;;;;3.88;3.15;;;;;;;21.88;nan;99237.28;5068198;28;20052;-59
2022/03/11 05:52:26;;;;;;;3.92;2.90;;;;;;;21.92;nan;99199.13;5068022;28;20071;-59
2022/03/11 05:54:51;;;;;;;3.53;2.67;;;;;;;21.93;nan;99200.75;5068462;28;20539;-59
2022/03/11 05:57:17;;;;;;;3.97;3.03;;;;;;;21.94;nan;99226.59;5067984;28;20044;-59
2022/03/11 05:59:43;;;;;;;3.90;2.88;;;;;;;21.93;nan;99214.66;5068116;28;20045;-59
2022/03/11 06:02:08;;;;;;;3.78;2.97;;;;;;;21.95;nan;99206.72;5068858;28;20473;-59
2022/03/11 06:04:34;;;;;;;3.97;2.83;;;;;;;21.95;nan;99217.06;5071744;28;20040;-59
2022/03/11 06:06:59;;;;;;;4.03;3.05;;;;;;;21.95;nan;99208.69;5071438;28;20040;-59
2022/03/11 06:09:24;;;;;;;5.18;3.00;;;;;;;21.96;nan;99227.00;5071774;28;20591;-59
2022/03/11 06:11:50;;;;;;;4.70;3.13;;;;;;;21.96;nan;99219.44;5071664;28;20044;-59
2022/03/11 06:14:15;;;;;;;4.05;2.95;;;;;;;21.96;nan;99222.22;5071982;28;20048;-59
2022/03/11 06:16:41;;;;;;;3.72;2.67;;;;;;;21.96;nan;99225.00;5071400;28;20132;-59
2022/03/11 06:19:06;;;;;;;4.18;2.92;;;;;;;21.95;nan;99217.84;5071209;28;20049;-59
2022/03/11 06:21:31;;;;;;;3.72;2.88;;;;;;;21.95;nan;99229.00;5071685;28;20497;-59
2022/03/11 06:23:57;;;;;;;4.05;2.88;;;;;;;21.95;nan;99219.84;5111435;28;20039;-59
2022/03/11 06:26:23;;;;;;;4.18;3.35;;;;;;;21.94;nan;99224.59;5077648;28;20475;-60
2022/03/11 06:28:49;;;;;;;3.85;2.85;;;;;;;21.95;nan;99217.84;5071511;28;20674;-59
2022/03/11 06:31:14;;;;;;;3.85;2.78;;;;;;;21.96;nan;99221.44;5071259;28;20131;-59
2022/03/11 06:33:40;;;;;;;3.83;2.80;;;;;;;21.97;nan;99215.47;5071636;28;20273;-59
2022/03/11 06:36:06;;;;;;;3.67;2.88;;;;;;;21.98;nan;99207.91;5071597;28;20040;-59
2022/03/11 06:38:31;;;;;;;3.60;2.60;;;;;;;21.97;nan;99214.66;5111912;28;20039;-60
2022/03/11 06:40:57;;;;;;;3.58;2.70;;;;;;;21.96;nan;99205.53;5102134;28;20055;-58
2022/03/11 06:43:22;;;;;;;4.43;2.70;;;;;;;21.97;nan;99192.38;5109224;28;20057;-59
2022/03/11 06:45:48;;;;;;;3.90;2.90;;;;;;;21.95;nan;99206.72;5075108;28;20044;-59
2022/03/11 06:48:19;;;;;;;4.05;2.90;;;;;;;21.97;nan;99206.31;5070826;28;20051;-59
2022/03/11 06:50:45;;;;;;;3.63;2.55;;;;;;;21.97;nan;99221.03;5070813;28;20457;-59
2022/03/11 06:53:10;;;;;;;3.80;2.78;;;;;;;21.97;nan;99242.50;5071090;28;20135;-59
2022/03/11 06:55:36;;;;;;;3.65;2.63;;;;;;;21.95;nan;99234.56;5071133;28;20047;-59
2022/03/11 06:58:01;;;;;;;3.58;2.75;;;;;;;21.96;nan;99238.94;5070795;28;20087;-59
2022/03/11 07:00:27;;;;;;;3.83;2.90;;;;;;;21.97;nan;99239.72;5071093;28;20087;-59
2022/03/11 07:02:52;;;;;;;3.70;2.70;;;;;;;21.98;nan;99249.69;5070978;28;20080;-59
2022/03/11 07:05:18;;;;;;;3.78;2.47;;;;;;;21.97;nan;99254.44;5070845;28;20052;-59
2022/03/11 07:07:43;;;;;;;3.83;2.80;;;;;;;21.95;nan;99245.69;5070517;28;20075;-59
2022/03/11 07:10:10;;;;;;;4.47;2.60;;;;;;;21.97;nan;99253.66;5070554;28;20063;-59
2022/03/11 07:12:36;;;;;;;4.82;2.60;;;;;;;21.96;nan;99258.44;5070863;28;20087;-59
2022/03/11 07:15:03;;;;;;;3.35;2.58;;;;;;;21.96;nan;99252.84;5069491;28;20080;-59
2022/03/11 07:17:29;;;;;;;3.65;2.75;;;;;;;21.97;nan;99268.38;5070838;28;20488;-59
2022/03/11 07:19:54;;;;;;;3.97;2.53;;;;;;;21.96;nan;99275.13;5070882;28;20080;-59
2022/03/11 07:22:20;;;;;;;3.72;2.45;;;;;;;21.97;nan;99265.59;5070701;28;20100;-59
2022/03/11 07:24:45;;;;;;;3.50;2.60;;;;;;;21.97;nan;99268.38;5070435;28;20040;-59
2022/03/11 07:27:15;;;;;;;3.28;2.60;;;;;;;21.96;nan;99275.13;5070352;28;20069;-59
2022/03/11 07:29:40;;;;;;;3.72;2.72;;;;;;;21.94;nan;99274.72;5070287;28;20420;-59
2022/03/11 07:32:08;;;;;;;3.67;2.70;;;;;;;21.96;nan;99282.69;5070365;28;20048;-59
2022/03/11 07:34:34;;;;;;;3.35;2.45;;;;;;;21.95;nan;99273.53;5070596;28;20102;-59
2022/03/11 07:36:59;;;;;;;3.47;2.40;;;;;;;21.96;nan;99274.34;5070552;28;20040;-59
2022/03/11 07:39:24;;;;;;;3.75;2.70;;;;;;;21.95;nan;99290.25;5070322;28;20045;-59
2022/03/11 07:41:53;;;;;;;3.30;2.45;;;;;;;21.94;nan;99276.72;5070304;28;20044;-59
2022/03/11 07:44:18;;;;;;;3.70;2.60;;;;;;;21.94;nan;99274.72;5070251;28;20182;-59
2022/03/11 07:46:44;;;;;;;3.53;2.40;;;;;;;21.95;nan;99284.69;5069318;28;20036;-59
2022/03/11 07:49:10;;;;;;;3.50;2.70;;;;;;;21.95;nan;99272.75;5073775;28;20044;-59
2022/03/11 07:51:36;;;;;;;3.67;2.60;;;;;;;21.93;nan;99270.34;5096427;28;20095;-58
2022/03/11 07:54:02;;;;;;;3.70;2.72;;;;;;;21.94;nan;99277.53;5107529;28;20427;-59
2022/03/11 07:56:27;;;;;;;4.68;3.03;;;;;;;21.95;nan;99272.75;5108548;28;20036;-59
2022/03/11 07:58:56;;;;;;;3.75;2.80;;;;;;;21.94;nan;99282.28;5108588;28;20043;-59
2022/03/11 08:01:22;;;;;;;3.83;2.60;;;;;;;21.93;nan;99267.56;5107244;28;20147;-59
2022/03/11 08:03:48;;;;;;;3.35;2.35;;;;;;;21.92;nan;99257.59;5099609;28;21293;-59
2022/03/11 08:06:14;;;;;;;3.58;2.65;;;;;;;21.93;nan;99263.97;5109510;28;20050;-59
2022/03/11 08:08:39;;;;;;;3.70;2.83;;;;;;;21.93;nan;99266.75;5109679;28;20039;-58
2022/03/11 08:11:06;;;;;;;3.55;2.55;;;;;;;21.88;nan;99242.84;5109227;28;20039;-59
2022/03/11 08:13:33;;;;;;;3.70;2.70;;;;;;;21.89;nan;99250.03;5102824;28;20039;-59
2022/03/11 08:15:59;;;;;;;8.65;2.90;;;;;;;21.94;nan;99254.44;5106741;28;20082;-58
2022/03/11 08:18:24;;;;;;;3.45;2.50;;;;;;;21.91;nan;99233.72;5109209;28;20079;-58
2022/03/11 08:20:50;;;;;;;3.97;2.85;;;;;;;21.90;nan;99240.47;5108470;28;20035;-59
2022/03/11 08:23:15;;;;;;;3.63;2.78;;;;;;;21.90;nan;99250.81;5093106;28;20537;-59
2022/03/11 08:25:41;;;;;;;3.42;2.47;;;;;;;21.90;nan;99248.84;5072238;28;20049;-60
2022/03/11 08:28:10;;;;;;;3.95;2.70;;;;;;;21.93;nan;99225.78;5081799;28;20036;-58
2022/03/11 08:30:37;;;;;;;4.38;2.83;;;;;;;21.90;nan;99220.97;5078266;28;20050;-58
2022/03/11 08:33:04;;;;;;;3.80;2.72;;;;;;;21.93;nan;99228.59;5077567;28;20507;-58
2022/03/11 08:35:30;;;;;;;2.95;2.17;;;;;;;21.94;nan;99219.03;5093399;28;20127;-59
2022/03/11 08:37:55;;;;;;;3.90;2.83;;;;;;;21.93;nan;99223.00;5066204;28;20138;-59
2022/03/11 08:40:26;;;;;;;4.18;2.95;;;;;;;21.96;nan;99229.78;5089364;28;20397;-56
2022/03/11 08:42:52;;;;;;;3.53;2.45;;;;;;;21.96;nan;99227.78;5094494;28;20584;-57
2022/03/11 08:45:21;;;;;;;4.35;2.70;;;;;;;21.99;nan;99226.22;5108396;28;20039;-57
2022/03/11 08:47:47;;;;;;;3.30;2.38;;;;;;;22.01;nan;99198.78;5095183;28;20039;-57
2022/03/11 08:50:13;;;;;;;3.83;2.70;;;;;;;21.99;nan;99207.50;5104172;28;20039;-57
2022/03/11 08:52:38;;;;;;;4.72;2.50;;;;;;;21.99;nan;99218.66;5075189;28;20074;-57
2022/03/11 08:55:04;;;;;;;4.03;3.05;;;;;;;21.99;nan;99198.38;5098859;28;20071;-57
2022/03/11 08:57:30;;;;;;;3.58;2.45;;;;;;;21.99;nan;99196.38;5102390;28;20134;-59
2022/03/11 08:59:55;;;;;;;4.30;2.88;;;;;;;21.98;nan;99196.78;5079706;28;20044;-58
2022/03/11 09:02:22;;;;;;;4.13;2.75;;;;;;;21.97;nan;99193.19;5067869;28;20416;-59
2022/03/11 09:04:48;;;;;;;3.83;2.72;;;;;;;21.97;nan;99189.59;5075278;28;20083;-58
2022/03/11 09:07:14;;;;;;;4.47;2.58;;;;;;;21.96;nan;99186.03;5074800;28;20079;-58
2022/03/11 09:09:41;;;;;;;3.90;2.80;;;;;;;21.98;nan;99180.06;5077813;28;20093;-58
2022/03/11 09:12:07;;;;;;;3.65;2.72;;;;;;;21.98;nan;99172.50;5094346;28;20040;-58
2022/03/11 09:14:32;;;;;;;3.40;2.47;;;;;;;21.94;nan;99173.69;5082412;28;20400;-57
2022/03/11 09:16:58;;;;;;;3.38;2.30;;;;;;;21.96;nan;99183.25;5075801;28;20135;-58
2022/03/11 09:19:24;;;;;;;3.20;2.50;;;;;;;21.95;nan;99162.16;5077575;28;20048;-58
2022/03/11 09:21:49;;;;;;;3.60;2.75;;;;;;;21.93;nan;99147.81;5076890;28;20048;-57
2022/03/11 09:24:15;;;;;;;4.30;2.67;;;;;;;21.95;nan;99161.34;5100273;28;20126;-57
2022/03/11 09:26:41;;;;;;;3.70;2.60;;;;;;;21.93;nan;99153.41;5107154;28;20118;-57
2022/03/11 09:29:07;;;;;;;3.83;2.88;;;;;;;21.93;nan;99142.25;5106669;28;20050;-56
2022/03/11 09:31:34;;;;;;;3.85;2.90;;;;;;;21.92;nan;99135.06;5107482;28;20040;-57
2022/03/11 09:34:00;;;;;;;3.60;2.75;;;;;;;21.90;nan;99148.59;5107272;28;20055;-56
2022/03/11 09:36:25;;;;;;;3.53;2.60;;;;;;;21.92;nan;99162.13;5107740;28;20047;-57
2022/03/11 09:38:51;;;;;;;3.78;2.75;;;;;;;21.90;nan;99137.44;5108132;28;20044;-58
2022/03/11 09:41:19;;;;;;;3.22;2.42;;;;;;;21.88;nan;99119.53;5109362;28;20501;-57
2022/03/11 09:43:44;;;;;;;3.50;2.53;;;;;;;21.89;nan;99130.28;5109841;28;20047;-57
2022/03/11 09:46:10;;;;;;;3.75;2.60;;;;;;;21.88;nan;99125.13;5107291;28;20085;-57
2022/03/11 09:48:36;;;;;;;3.55;2.42;;;;;;;21.88;nan;99109.19;5103764;28;20050;-57
2022/03/11 09:51:02;;;;;;;4.32;2.70;;;;;;;21.87;nan;99104.81;5108392;28;20082;-57
2022/03/11 09:53:28;;;;;;;3.55;2.30;;;;;;;21.87;nan;99092.91;5110568;28;20325;-57
2022/03/11 09:55:54;;;;;;;4.00;2.53;;;;;;;21.85;nan;99106.38;5107065;28;20032;-57
2022/03/11 09:58:19;;;;;;;4.13;2.70;;;;;;;21.86;nan;99091.28;5105773;28;20151;-57
2022/03/11 10:00:47;;;;;;;3.70;2.90;;;;;;;21.86;nan;99105.19;5105846;28;20470;-57
2022/03/11 10:03:13;;;;;;;5.63;2.33;;;;;;;21.85;nan;99098.81;5110170;28;20499;-57
2022/03/11 10:05:49;;;;;;;6.03;2.30;;;;;;;21.84;nan;99094.44;5102321;28;20043;-57
2022/03/11 10:08:16;;;;;;;3.63;2.70;;;;;;;21.84;nan;99086.09;5108016;28;20048;-56
2022/03/11 10:10:42;;;;;;;3.75;2.70;;;;;;;21.82;nan;99074.56;5098504;28;20122;-57
2022/03/11 10:13:10;;;;;;;4.90;2.35;;;;;;;21.81;nan;99072.97;5109371;28;20188;-57
2022/03/11 10:15:36;;;;;;;3.78;2.15;;;;;;;21.76;nan;99064.97;5104772;28;20039;-57
2022/03/11 10:18:03;;;;;;;4.13;2.60;;;;;;;21.69;nan;99062.94;5106772;28;20569;-57
2022/03/11 10:20:31;;;;;;;3.97;2.70;;;;;;;21.69;nan;99073.28;5109572;28;20071;-57
2022/03/11 10:22:57;;;;;;;3.75;2.70;;;;;;;21.72;nan;99064.19;5107154;28;20074;-57
2022/03/11 10:25:30;;;;;;;3.17;2.40;;;;;;;21.67;nan;99054.19;5106872;28;20121;-56
2022/03/11 10:27:57;;;;;;;3.67;2.47;;;;;;;21.68;nan;99043.88;5099125;28;20529;-57
2022/03/11 10:30:23;;;;;;;2.97;2.25;;;;;;;21.74;nan;99044.28;5102163;28;20032;-57
2022/03/11 10:32:53;;;;;;;3.53;2.47;;;;;;;21.76;nan;99041.91;5102961;28;20051;-57
2022/03/11 10:35:19;;;;;;;3.97;3.03;;;;;;;21.71;nan;99040.28;5105778;28;20165;-57
2022/03/11 10:38:02;;;;;;;3.75;2.70;;;;;;;21.66;nan;99035.13;5105747;28;20135;-56
2022/03/11 10:40:30;;;;;;;3.90;2.58;;;;;;;21.65;nan;99048.22;5104588;28;20603;-57
2022/03/11 10:43:17;;;;;;;4.70;2.75;;;;;;;21.68;nan;99060.56;5107036;28;20054;-59
2022/03/11 10:45:45;;;;;;;5.68;3.45;;;;;;;21.67;nan;99031.94;5103986;28;20070;-57
2022/03/11 10:48:12;;;;;;;6.68;4.03;;;;;;;21.67;nan;99045.06;5100767;28;20043;-57
2022/03/11 10:50:37;;;;;;;5.82;3.70;;;;;;;21.66;nan;99035.13;5104165;28;20412;-57
2022/03/11 10:53:07;;;;;;;6.57;4.00;;;;;;;21.65;nan;99028.75;5100479;28;20075;-56
2022/03/11 10:55:39;;;;;;;6.30;3.47;;;;;;;21.64;nan;99029.91;5103873;28;20043;-56
2022/03/11 10:58:06;;;;;;;7.13;3.83;;;;;;;21.67;nan;99025.56;5104244;28;20062;-55
2022/03/11 11:00:36;;;;;;;7.43;3.58;;;;;;;21.66;nan;99026.75;5108928;28;20598;-57
2022/03/11 11:03:06;;;;;;;6.90;4.00;;;;;;;21.65;nan;99030.75;5106112;28;20119;-56
2022/03/11 11:05:32;;;;;;;5.90;3.47;;;;;;;21.65;nan;99022.38;5102291;28;20047;-57
2022/03/11 11:07:59;;;;;;;7.85;3.30;;;;;;;21.63;nan;99022.75;5103684;28;20580;-58
2022/03/11 11:10:28;;;;;;;5.63;2.90;;;;;;;21.65;nan;99009.28;5106493;28;20106;-57
2022/03/11 11:12:53;;;;;;;6.38;3.40;;;;;;;21.64;nan;99004.06;5107081;28;20419;-57
2022/03/11 11:15:21;;;;;;;6.65;3.53;;;;;;;21.67;nan;99011.66;5103952;28;20495;-57
2022/03/11 11:17:49;;;;;;;7.45;3.67;;;;;;;21.65;nan;99008.47;5103564;28;20508;-58
2022/03/11 11:20:22;;;;;;;7.05;3.40;;;;;;;21.65;nan;99017.63;5100744;28;20519;-57
2022/03/11 11:22:50;;;;;;;5.93;3.10;;;;;;;21.65;nan;99009.28;5100008;28;20047;-58
2022/03/11 11:25:18;;;;;;;5.53;2.70;;;;;;;21.66;nan;99010.06;5097084;28;20035;-57
2022/03/11 11:27:45;;;;;;;8.20;2.92;;;;;;;21.66;nan;99010.84;5107843;28;20181;-56
2022/03/11 11:30:12;;;;;;;4.95;2.78;;;;;;;21.66;nan;98993.38;5102174;28;20047;-57
2022/03/11 11:32:40;;;;;;;9.57;2.25;;;;;;;21.66;nan;98994.16;5109599;28;20047;-56
2022/03/11 11:35:30;;;;;;;9.40;2.88;;;;;;;21.66;nan;99002.50;5102444;28;20644;-57
2022/03/11 11:37:57;;;;;;;8.95;2.67;;;;;;;21.66;nan;98993.38;5098776;28;20048;-57
2022/03/11 11:40:34;;;;;;;2.88;1.85;;;;;;;21.66;nan;98979.44;5106852;28;20254;-57
2022/03/11 11:43:13;;;;;;;4.25;2.30;;;;;;;21.64;nan;98974.25;5104378;28;20046;-56
2022/03/11 11:45:49;;;;;;;3.55;2.28;;;;;;;21.63;nan;98972.66;5104686;28;20564;-57
2022/03/11 11:48:33;;;;;;;3.78;2.15;;;;;;;21.66;nan;98976.66;5102395;28;20048;-57
2022/03/11 11:51:04;;;;;;;6.57;2.25;;;;;;;21.66;nan;98971.91;5107743;28;20570;-57